createdAt,value
2023-02-14T00:00:39.470Z,281.64
2023-02-14T00:01:41.779Z,273.96
2023-02-14T00:02:45.078Z,281.64
2023-02-14T00:03:47.384Z,266.28
2023-02-14T00:04:49.696Z,263.72
2023-02-14T00:05:52.970Z,266.28
2023-02-14T00:06:56.280Z,253.48
2023-02-14T00:07:59.565Z,256.04
2023-02-14T00:09:02.857Z,248.36
2023-02-14T00:10:06.147Z,256.04
2023-02-14T00:11:09.449Z,248.36
2023-02-14T00:12:13.069Z,256.04
2023-02-14T00:13:16.033Z,235.56
2023-02-14T00:14:19.328Z,240.68
2023-02-14T00:15:22.605Z,220.2
2023-02-14T00:16:25.916Z,220.2
2023-02-14T00:17:29.190Z,233
2023-02-14T00:18:31.500Z,230.44
2023-02-14T00:19:34.789Z,212.52
2023-02-14T00:20:38.090Z,204.84
2023-02-14T00:21:41.387Z,209.96
2023-02-14T00:22:44.655Z,199.72
2023-02-14T00:23:47.985Z,204.84
2023-02-14T00:24:51.258Z,197.16
2023-02-14T00:25:53.562Z,199.72
2023-02-14T00:26:55.872Z,166.44
2023-02-14T00:27:58.174Z,174.12
2023-02-14T00:29:00.519Z,179.24
2023-02-14T00:30:03.777Z,171.56
2023-02-14T00:31:07.073Z,2.56
2023-02-14T00:32:10.369Z,140.84
2023-02-14T00:33:13.657Z,161.32
2023-02-14T00:34:16.931Z,148.52
2023-02-14T00:35:20.251Z,148.52
2023-02-14T00:36:23.524Z,145.96
2023-02-14T00:37:26.828Z,148.52
2023-02-14T00:38:30.124Z,151.08
2023-02-14T00:39:33.414Z,148.52
2023-02-14T00:40:36.694Z,130.6
2023-02-14T00:41:40.013Z,153.64
2023-02-14T00:42:42.309Z,153.64
2023-02-14T00:43:45.597Z,158.76
2023-02-14T00:44:48.875Z,161.32
2023-02-14T00:45:52.179Z,171.56
2023-02-14T00:46:55.483Z,169
2023-02-14T00:47:58.772Z,169
2023-02-14T00:49:02.059Z,186.92
2023-02-14T00:50:04.363Z,184.36
2023-02-14T00:51:06.692Z,171.56
2023-02-14T00:52:08.994Z,176.68
2023-02-14T00:53:11.301Z,166.44
2023-02-14T00:54:14.604Z,171.56
2023-02-14T00:55:17.871Z,179.24
2023-02-14T00:56:21.163Z,166.44
2023-02-14T00:57:24.472Z,204.84
2023-02-14T00:58:27.760Z,192.04
2023-02-14T00:59:31.058Z,204.84
2023-02-14T01:00:34.340Z,217.64
2023-02-14T01:01:37.623Z,207.4
2023-02-14T01:02:40.953Z,220.2
2023-02-14T01:03:44.202Z,225.32
2023-02-14T01:04:47.509Z,240.68
2023-02-14T01:05:50.799Z,248.36
2023-02-14T01:06:53.110Z,266.28
2023-02-14T01:07:56.395Z,261.16
2023-02-14T01:08:59.695Z,268.84
2023-02-14T01:10:03.000Z,2.56
2023-02-14T01:11:06.277Z,279.08
2023-02-14T01:12:09.574Z,286.76
2023-02-14T01:13:12.850Z,304.68
2023-02-14T01:14:15.172Z,307.24
2023-02-14T01:15:17.480Z,314.92
2023-02-14T01:16:19.796Z,309.8
2023-02-14T01:17:22.090Z,312.36
2023-02-14T01:18:25.393Z,309.8
2023-02-14T01:19:28.695Z,304.68
2023-02-14T01:20:31.979Z,320.04
2023-02-14T01:21:35.272Z,-309.72
2023-02-14T01:22:38.575Z,-317.4
2023-02-14T01:23:41.855Z,-289.24
2023-02-14T01:24:45.134Z,-284.12
2023-02-14T01:25:48.440Z,-271.32
2023-02-14T01:26:51.722Z,-276.44
2023-02-14T01:27:55.010Z,-263.64
2023-02-14T01:28:58.309Z,-268.76
2023-02-14T01:30:01.608Z,-245.72
2023-02-14T01:31:03.907Z,-238.04
2023-02-14T01:32:07.196Z,-227.8
2023-02-14T01:33:10.558Z,-222.68
2023-02-14T01:34:13.782Z,-212.44
2023-02-14T01:35:17.070Z,-215
2023-02-14T01:36:20.367Z,-222.68
2023-02-14T01:37:23.651Z,-240.6
2023-02-14T01:38:25.981Z,-232.92
2023-02-14T01:39:28.293Z,-215
2023-02-14T01:40:30.606Z,-207.32
2023-02-14T01:41:32.904Z,-209.88
2023-02-14T01:42:37.040Z,-227.8
2023-02-14T01:43:40.334Z,-194.52
2023-02-14T01:44:43.630Z,-156.12
2023-02-14T01:45:46.925Z,-171.48
2023-02-14T01:46:50.205Z,-163.8
2023-02-14T01:47:53.516Z,-148.44
2023-02-14T01:48:56.808Z,-163.8
2023-02-14T01:50:00.092Z,-145.88
2023-02-14T01:51:03.391Z,-133.08
2023-02-14T01:52:06.672Z,-125.4
2023-02-14T01:53:09.976Z,-102.36
2023-02-14T01:54:13.264Z,-89.56
2023-02-14T01:55:15.571Z,-92.12
2023-02-14T01:56:18.892Z,-104.92
2023-02-14T01:57:22.151Z,-107.48
2023-02-14T01:58:25.433Z,-94.68
2023-02-14T01:59:28.733Z,-107.48
2023-02-14T02:00:32.020Z,-81.88
2023-02-14T02:01:35.324Z,-104.92
2023-02-14T02:02:37.630Z,-43.48
2023-02-14T02:03:40.037Z,-46.04
2023-02-14T02:04:42.306Z,-20.44
2023-02-14T02:05:44.652Z,-25.56
2023-02-14T02:06:47.889Z,-10.2
2023-02-14T02:07:51.188Z,-10.2
2023-02-14T02:08:54.484Z,2.61
2023-02-14T02:09:57.772Z,17.97
2023-02-14T02:11:01.063Z,25.65
2023-02-14T02:12:04.364Z,43.57
2023-02-14T02:13:07.642Z,41.01
2023-02-14T02:14:10.949Z,48.69
2023-02-14T02:15:14.233Z,71.73
2023-02-14T02:16:17.518Z,81.97
2023-02-14T02:17:20.868Z,94.77
2023-02-14T02:18:24.097Z,94.77
2023-02-14T02:19:26.403Z,107.57
2023-02-14T02:20:29.720Z,122.93
2023-02-14T02:21:32.994Z,94.77
2023-02-14T02:22:36.289Z,58.93
2023-02-14T02:23:40.069Z,76.85
2023-02-14T02:24:43.367Z,66.61
2023-02-14T02:25:46.646Z,97.33
2023-02-14T02:26:48.975Z,138.29
2023-02-14T02:27:51.277Z,140.85
2023-02-14T02:28:53.599Z,163.89
2023-02-14T02:29:57.071Z,174.13
2023-02-14T02:31:00.295Z,192.05
2023-02-14T02:32:03.584Z,202.29
2023-02-14T02:33:06.870Z,204.85
2023-02-14T02:34:10.173Z,220.21
2023-02-14T02:35:13.463Z,220.21
2023-02-14T02:36:16.744Z,225.33
2023-02-14T02:37:20.038Z,240.69
2023-02-14T02:38:23.336Z,253.49
2023-02-14T02:39:26.625Z,266.29
2023-02-14T02:40:29.938Z,256.05
2023-02-14T02:41:33.242Z,286.77
2023-02-14T02:42:37.238Z,302.13
2023-02-14T02:43:40.176Z,320.05
2023-02-14T02:44:43.453Z,-325.07
2023-02-14T02:45:46.762Z,-312.27
2023-02-14T02:46:50.026Z,325.17
2023-02-14T02:47:52.350Z,-302.03
2023-02-14T02:48:55.643Z,-325.07
2023-02-14T02:49:58.945Z,-261.07
2023-02-14T02:51:01.286Z,-266.19
2023-02-14T02:52:03.556Z,-266.19
2023-02-14T02:53:06.856Z,-261.07
2023-02-14T02:54:10.144Z,-268.75
2023-02-14T02:55:13.416Z,-245.71
2023-02-14T02:56:16.732Z,-255.95
2023-02-14T02:57:20.017Z,-227.79
2023-02-14T02:58:23.290Z,-230.35
2023-02-14T02:59:26.588Z,-227.79
2023-02-14T03:00:29.896Z,-202.19
2023-02-14T03:01:33.184Z,-191.95
2023-02-14T03:02:36.477Z,-194.51
2023-02-14T03:03:40.251Z,-227.79
2023-02-14T03:04:43.534Z,-317.39
2023-02-14T03:05:45.889Z,291.89
2023-02-14T03:06:49.182Z,309.81
2023-02-14T03:07:52.426Z,-327.63
2023-02-14T03:08:55.715Z,-296.91
2023-02-14T03:09:59.021Z,-273.87
2023-02-14T03:11:02.342Z,-271.31
2023-02-14T03:12:05.586Z,-266.19
2023-02-14T03:13:07.975Z,-281.55
2023-02-14T03:14:10.206Z,-296.91
2023-02-14T03:15:12.538Z,-296.91
2023-02-14T03:16:14.841Z,-284.11
2023-02-14T03:17:18.130Z,-304.59
2023-02-14T03:18:20.436Z,-304.59
2023-02-14T03:19:22.718Z,320.05
2023-02-14T03:20:26.034Z,281.65
2023-02-14T03:21:29.324Z,-319.95
2023-02-14T03:22:32.648Z,304.69
2023-02-14T03:23:35.908Z,-296.91
2023-02-14T03:24:39.200Z,-253.39
2023-02-14T03:25:42.500Z,2.56
2023-02-14T03:26:45.787Z,-248.27
2023-02-14T03:27:49.081Z,-225.23
2023-02-14T03:28:52.373Z,-197.07
2023-02-14T03:29:55.667Z,-189.39
2023-02-14T03:30:58.951Z,-166.35
2023-02-14T03:32:02.253Z,-174.03
2023-02-14T03:33:04.564Z,-166.35
2023-02-14T03:34:07.848Z,-148.43
2023-02-14T03:35:11.139Z,-158.67
2023-02-14T03:36:14.466Z,-117.71
2023-02-14T03:37:17.729Z,-94.67
2023-02-14T03:38:21.004Z,-122.83
2023-02-14T03:39:24.304Z,-102.35
2023-02-14T03:40:26.624Z,-92.11
2023-02-14T03:41:28.945Z,-69.07
2023-02-14T03:42:31.253Z,-86.99
2023-02-14T03:43:33.540Z,-56.27
2023-02-14T03:44:37.528Z,-56.27
2023-02-14T03:45:40.774Z,-25.55
2023-02-14T03:46:44.010Z,-46.03
2023-02-14T03:47:47.310Z,-35.79
2023-02-14T03:48:50.598Z,-30.67
2023-02-14T03:49:53.905Z,-28.11
2023-02-14T03:50:57.191Z,-28.11
2023-02-14T03:52:00.470Z,-28.11
2023-02-14T03:53:03.771Z,-43.47
2023-02-14T03:54:07.067Z,0.06
2023-02-14T03:55:10.376Z,-48.59
2023-02-14T03:56:13.636Z,-28.11
2023-02-14T03:57:15.944Z,-25.55
2023-02-14T03:58:19.249Z,-17.87
2023-02-14T03:59:22.531Z,0.06
2023-02-14T04:00:25.820Z,-7.63
2023-02-14T04:01:29.125Z,-12.75
2023-02-14T04:02:32.415Z,7.74
2023-02-14T04:03:35.705Z,15.42
2023-02-14T04:04:38.006Z,2.56
2023-02-14T04:05:40.653Z,51.26
2023-02-14T04:06:43.035Z,35.9
2023-02-14T04:07:45.292Z,56.38
2023-02-14T04:08:48.589Z,48.7
2023-02-14T04:09:51.867Z,76.86
2023-02-14T04:10:55.172Z,84.54
2023-02-14T04:11:58.457Z,81.98
2023-02-14T04:13:01.755Z,107.58
2023-02-14T04:14:05.043Z,128.06
2023-02-14T04:15:08.326Z,135.74
2023-02-14T04:16:11.626Z,120.38
2023-02-14T04:17:14.926Z,130.62
2023-02-14T04:18:18.214Z,166.46
2023-02-14T04:19:21.556Z,166.46
2023-02-14T04:20:24.782Z,186.94
2023-02-14T04:21:27.111Z,174.14
2023-02-14T04:22:30.394Z,197.18
2023-02-14T04:23:33.680Z,197.18
2023-02-14T04:24:37.598Z,189.5
2023-02-14T04:25:40.876Z,176.7
2023-02-14T04:26:44.176Z,202.3
2023-02-14T04:27:47.458Z,197.18
2023-02-14T04:28:49.791Z,250.94
2023-02-14T04:29:52.088Z,245.82
2023-02-14T04:30:55.369Z,238.14
2023-02-14T04:31:58.681Z,225.34
2023-02-14T04:33:02.021Z,253.5
2023-02-14T04:34:05.261Z,273.98
2023-02-14T04:35:08.556Z,233.02
2023-02-14T04:36:11.865Z,271.42
2023-02-14T04:37:15.136Z,261.18
2023-02-14T04:38:18.435Z,284.22
2023-02-14T04:39:21.723Z,271.42
2023-02-14T04:40:25.020Z,286.78
2023-02-14T04:41:28.304Z,266.3
2023-02-14T04:42:31.593Z,304.7
2023-02-14T04:43:33.910Z,261.18
2023-02-14T04:44:37.973Z,271.42
2023-02-14T04:45:41.271Z,299.58
2023-02-14T04:46:44.559Z,291.9
2023-02-14T04:47:47.833Z,307.26
2023-02-14T04:48:51.125Z,294.46
2023-02-14T04:49:54.432Z,320.06
2023-02-14T04:50:56.754Z,312.38
2023-02-14T04:51:59.055Z,-304.58
2023-02-14T04:53:01.378Z,312.38
2023-02-14T04:54:03.683Z,-314.82
2023-02-14T04:55:05.979Z,325.18
2023-02-14T04:56:08.297Z,-322.5
2023-02-14T04:57:11.574Z,-304.58
2023-02-14T04:58:14.864Z,-299.46
2023-02-14T04:59:18.172Z,-309.7
2023-02-14T05:00:21.451Z,-325.06
2023-02-14T05:01:24.752Z,-325.06
2023-02-14T05:02:28.075Z,-309.7
2023-02-14T05:03:31.332Z,-309.7
2023-02-14T05:04:34.672Z,-325.06
2023-02-14T05:05:37.922Z,-325.06
2023-02-14T05:06:41.207Z,-278.98
2023-02-14T05:07:44.486Z,-261.06
2023-02-14T05:08:47.802Z,-253.38
2023-02-14T05:09:50.091Z,-273.86
2023-02-14T05:10:53.413Z,-248.26
2023-02-14T05:11:56.771Z,-243.14
2023-02-14T05:12:59.957Z,-248.26
2023-02-14T05:14:03.267Z,-199.62
2023-02-14T05:15:06.591Z,-186.82
2023-02-14T05:16:09.833Z,-181.7
2023-02-14T05:17:12.153Z,-168.9
2023-02-14T05:18:14.470Z,-158.66
2023-02-14T05:19:16.782Z,-176.58
2023-02-14T05:20:19.093Z,2.56
2023-02-14T05:21:22.417Z,-158.66
2023-02-14T05:22:25.670Z,-153.54
2023-02-14T05:23:28.959Z,-171.46
2023-02-14T05:24:32.244Z,-181.7
2023-02-14T05:25:35.549Z,-181.7
2023-02-14T05:26:38.834Z,-186.82
2023-02-14T05:27:42.134Z,-209.86
2023-02-14T05:28:45.421Z,-191.94
2023-02-14T05:29:48.722Z,-191.94
2023-02-14T05:30:52.010Z,-176.58
2023-02-14T05:31:55.288Z,-163.78
2023-02-14T05:32:58.580Z,-176.58
2023-02-14T05:34:00.892Z,-194.5
2023-02-14T05:35:04.197Z,-186.82
2023-02-14T05:36:07.484Z,-163.78
2023-02-14T05:37:10.771Z,-168.9
2023-02-14T05:38:14.059Z,-158.66
2023-02-14T05:39:17.350Z,-168.9
2023-02-14T05:40:20.645Z,-163.78
2023-02-14T05:41:22.960Z,-150.98
2023-02-14T05:42:25.266Z,-171.46
2023-02-14T05:43:28.572Z,-158.66
2023-02-14T05:44:30.880Z,-112.58
2023-02-14T05:45:33.182Z,-140.74
2023-02-14T05:46:36.472Z,-140.74
2023-02-14T05:47:39.766Z,-135.62
2023-02-14T05:48:43.068Z,-112.58
2023-02-14T05:49:46.335Z,-122.82
2023-02-14T05:50:49.639Z,-102.34
2023-02-14T05:51:52.931Z,-107.46
2023-02-14T05:52:56.240Z,-89.54
2023-02-14T05:53:59.522Z,-74.18
2023-02-14T05:55:02.808Z,-51.14
2023-02-14T05:56:06.133Z,-51.14
2023-02-14T05:57:09.387Z,-294.33
2023-02-14T05:58:12.695Z,15.42
2023-02-14T05:59:15.002Z,320.06
2023-02-14T06:00:18.278Z,-209.86
2023-02-14T06:01:21.601Z,-135.62
2023-02-14T06:02:24.876Z,-130.5
2023-02-14T06:03:28.167Z,-158.66
2023-02-14T06:04:31.454Z,-112.58
2023-02-14T06:05:34.749Z,-89.54
2023-02-14T06:06:37.075Z,-69.06
2023-02-14T06:07:39.478Z,-56.26
2023-02-14T06:08:41.691Z,-51.14
2023-02-14T06:09:43.985Z,-61.38
2023-02-14T06:10:47.266Z,-35.78
2023-02-14T06:11:50.573Z,-28.1
2023-02-14T06:12:53.884Z,-30.66
2023-02-14T06:13:57.149Z,-35.78
2023-02-14T06:15:00.460Z,2.63
2023-02-14T06:16:03.739Z,17.99
2023-02-14T06:17:07.023Z,-28.1
2023-02-14T06:18:10.325Z,-2.5
2023-02-14T06:19:12.632Z,17.99
2023-02-14T06:20:15.951Z,41.03
2023-02-14T06:21:19.244Z,35.91
2023-02-14T06:22:22.518Z,46.15
2023-02-14T06:23:25.819Z,61.51
2023-02-14T06:24:29.115Z,2.56
2023-02-14T06:25:32.390Z,46.15
2023-02-14T06:26:35.680Z,41.03
2023-02-14T06:27:38.974Z,46.15
2023-02-14T06:28:42.286Z,30.79
2023-02-14T06:29:45.571Z,17.99
2023-02-14T06:30:47.889Z,30.79
2023-02-14T06:31:50.167Z,35.91
2023-02-14T06:32:52.547Z,23.11
2023-02-14T06:33:54.821Z,56.39
2023-02-14T06:34:58.095Z,30.79
2023-02-14T06:36:01.387Z,41.03
2023-02-14T06:37:04.681Z,51.27
2023-02-14T06:38:07.960Z,71.75
2023-02-14T06:39:11.253Z,71.75
2023-02-14T06:40:14.602Z,61.51
2023-02-14T06:41:17.858Z,7.75
2023-02-14T06:42:21.151Z,51.27
2023-02-14T06:43:24.483Z,51.27
2023-02-14T06:44:27.724Z,81.99
2023-02-14T06:45:31.007Z,30.79
2023-02-14T06:46:34.296Z,51.27
2023-02-14T06:47:36.614Z,71.75
2023-02-14T06:48:39.910Z,61.51
2023-02-14T06:49:43.197Z,102.47
2023-02-14T06:50:46.480Z,107.59
2023-02-14T06:51:49.783Z,102.47
2023-02-14T06:52:53.071Z,102.47
2023-02-14T06:53:56.361Z,97.35
2023-02-14T06:54:58.666Z,107.59
2023-02-14T06:56:00.993Z,143.43
2023-02-14T06:57:03.301Z,153.67
2023-02-14T06:58:05.606Z,163.91
2023-02-14T06:59:08.889Z,138.31
2023-02-14T07:00:12.180Z,158.79
2023-02-14T07:01:15.481Z,128.07
2023-02-14T07:02:18.791Z,102.47
2023-02-14T07:03:22.145Z,143.43
2023-02-14T07:04:25.362Z,153.67
2023-02-14T07:05:28.652Z,158.79
2023-02-14T07:06:31.968Z,186.95
2023-02-14T07:07:35.260Z,189.51
2023-02-14T07:08:38.523Z,145.99
2023-02-14T07:09:41.821Z,171.59
2023-02-14T07:10:45.096Z,176.71
2023-02-14T07:11:47.420Z,158.79
2023-02-14T07:12:50.731Z,163.91
2023-02-14T07:13:53.993Z,145.99
2023-02-14T07:14:57.303Z,192.07
2023-02-14T07:16:00.594Z,145.99
2023-02-14T07:17:03.876Z,186.95
2023-02-14T07:18:07.173Z,148.55
2023-02-14T07:19:09.466Z,176.71
2023-02-14T07:20:11.789Z,197.19
2023-02-14T07:21:14.104Z,181.83
2023-02-14T07:22:16.405Z,158.79
2023-02-14T07:23:19.708Z,163.91
2023-02-14T07:24:23.053Z,158.79
2023-02-14T07:25:26.285Z,143.43
2023-02-14T07:26:29.582Z,107.59
2023-02-14T07:27:32.871Z,128.07
2023-02-14T07:28:36.160Z,138.31
2023-02-14T07:29:39.452Z,128.07
2023-02-14T07:30:42.744Z,133.19
2023-02-14T07:31:46.027Z,143.43
2023-02-14T07:32:49.328Z,138.31
2023-02-14T07:33:52.635Z,122.95
2023-02-14T07:34:55.912Z,143.43
2023-02-14T07:35:58.220Z,143.43
2023-02-14T07:37:01.549Z,153.67
2023-02-14T07:38:04.828Z,176.71
2023-02-14T07:39:08.093Z,171.59
2023-02-14T07:40:11.390Z,176.71
2023-02-14T07:41:14.691Z,161.35
2023-02-14T07:42:17.970Z,166.47
2023-02-14T07:43:20.278Z,161.35
2023-02-14T07:44:22.746Z,171.59
2023-02-14T07:45:24.919Z,171.59
2023-02-14T07:46:27.206Z,186.95
2023-02-14T07:47:30.509Z,181.83
2023-02-14T07:48:33.854Z,163.91
2023-02-14T07:49:37.236Z,148.55
2023-02-14T07:50:40.576Z,153.67
2023-02-14T07:51:43.761Z,186.95
2023-02-14T07:52:47.158Z,174.15
2023-02-14T07:53:50.312Z,181.83
2023-02-14T07:54:53.888Z,158.79
2023-02-14T07:55:57.137Z,158.79
2023-02-14T07:57:00.416Z,171.59
2023-02-14T07:58:03.588Z,171.59
2023-02-14T07:59:07.049Z,189.51
2023-02-14T08:00:09.230Z,189.51
2023-02-14T08:01:12.623Z,163.91
2023-02-14T08:02:15.862Z,176.71
2023-02-14T08:03:19.185Z,202.31
2023-02-14T08:04:22.496Z,179.27
2023-02-14T08:05:25.701Z,184.39
2023-02-14T08:06:29.011Z,186.95
2023-02-14T08:07:31.269Z,145.99
2023-02-14T08:08:33.642Z,176.71
2023-02-14T08:09:36.828Z,153.67
2023-02-14T08:10:40.143Z,161.35
2023-02-14T08:11:42.578Z,148.55
2023-02-14T08:12:44.806Z,133.19
2023-02-14T08:13:48.106Z,138.31
2023-02-14T08:14:51.419Z,153.67
2023-02-14T08:15:54.614Z,148.55
2023-02-14T08:16:57.928Z,117.83
2023-02-14T08:18:01.259Z,102.47
2023-02-14T08:19:04.489Z,92.23
2023-02-14T08:20:07.777Z,107.59
2023-02-14T08:21:11.176Z,117.83
2023-02-14T08:22:14.359Z,143.43
2023-02-14T08:23:17.668Z,138.31
2023-02-14T08:24:21.026Z,143.43
2023-02-14T08:25:24.270Z,163.91
2023-02-14T08:26:26.638Z,176.71
2023-02-14T08:27:29.836Z,176.71
2023-02-14T08:28:33.131Z,176.71
2023-02-14T08:29:36.436Z,122.95
2023-02-14T08:30:39.712Z,112.71
2023-02-14T08:31:43.103Z,76.87
2023-02-14T08:32:46.302Z,107.59
2023-02-14T08:33:48.678Z,102.47
2023-02-14T08:34:50.940Z,117.83
2023-02-14T08:35:54.305Z,71.75
2023-02-14T08:36:57.500Z,81.99
2023-02-14T08:38:00.841Z,66.63
2023-02-14T08:39:04.078Z,163.91
2023-02-14T08:40:07.368Z,233.03
2023-02-14T08:41:10.684Z,312.39
2023-02-14T08:42:14.027Z,-327.61
2023-02-14T08:43:17.251Z,-191.93
2023-02-14T08:44:20.546Z,-110.01
2023-02-14T08:45:23.932Z,0.08
2023-02-14T08:46:27.419Z,69.2
2023-02-14T08:47:30.425Z,117.84
2023-02-14T08:48:32.741Z,171.6
2023-02-14T08:49:36.013Z,102.48
2023-02-14T08:50:39.414Z,84.56
2023-02-14T08:51:42.616Z,166.47
2023-02-14T08:52:45.893Z,171.59
2023-02-14T08:53:49.198Z,-212.41
2023-02-14T08:54:52.474Z,-28.09
2023-02-14T08:55:54.795Z,99.92
2023-02-14T08:56:57.201Z,243.28
2023-02-14T08:57:59.413Z,-138.16
2023-02-14T08:59:01.821Z,-102.32
2023-02-14T09:00:05.013Z,261.2
2023-02-14T09:01:08.327Z,53.84
2023-02-14T09:02:11.607Z,-17.85
2023-02-14T09:03:14.888Z,176.72
2023-02-14T09:04:18.222Z,256.08
2023-02-14T09:05:21.645Z,130.64
2023-02-14T09:06:24.879Z,-53.69
2023-02-14T09:07:28.244Z,92.24
2023-02-14T09:08:31.473Z,192.08
2023-02-14T09:09:34.800Z,140.88
2023-02-14T09:10:38.114Z,256.08
2023-02-14T09:11:41.784Z,-261.04
2023-02-14T09:12:44.078Z,-232.88
2023-02-14T09:13:47.367Z,-220.08
2023-02-14T09:14:50.667Z,-99.76
2023-02-14T09:15:53.951Z,-56.24
2023-02-14T09:16:57.256Z,-5.04
2023-02-14T09:18:00.536Z,102.49
2023-02-14T09:19:03.827Z,120.41
2023-02-14T09:20:06.174Z,146.01
2023-02-14T09:21:08.449Z,189.53
2023-02-14T09:22:10.778Z,256.09
2023-02-14T09:23:13.075Z,268.89
2023-02-14T09:24:16.372Z,-266.15
2023-02-14T09:25:19.667Z,-209.83
2023-02-14T09:26:22.942Z,-189.35
2023-02-14T09:27:26.225Z,-179.11
2023-02-14T09:28:29.538Z,-135.59
2023-02-14T09:29:32.835Z,-140.71
2023-02-14T09:30:36.125Z,268.89
2023-02-14T09:31:39.414Z,-322.47
2023-02-14T09:32:42.711Z,-189.35
2023-02-14T09:33:45.992Z,274.01
2023-02-14T09:34:49.277Z,207.45
2023-02-14T09:35:52.585Z,51.29
2023-02-14T09:36:54.898Z,-38.32
2023-02-14T09:37:58.181Z,-46
2023-02-14T09:39:01.474Z,10.33
2023-02-14T09:40:04.758Z,-63.92
2023-02-14T09:41:08.051Z,-71.6
2023-02-14T09:42:11.340Z,-94.64
2023-02-14T09:43:14.642Z,-153.52
2023-02-14T09:44:16.992Z,-189.36
2023-02-14T09:45:19.259Z,-220.08
2023-02-14T09:46:21.567Z,-232.88
2023-02-14T09:47:23.880Z,-212.4
2023-02-14T09:48:27.178Z,-204.72
2023-02-14T09:49:30.462Z,-189.36
2023-02-14T09:50:32.767Z,-227.76
2023-02-14T09:51:36.109Z,-266.16
2023-02-14T09:52:39.511Z,-243.12
2023-02-14T09:53:42.647Z,-150.96
2023-02-14T09:54:46.108Z,-56.24
2023-02-14T09:55:49.444Z,-107.44
2023-02-14T09:56:52.675Z,-99.76
2023-02-14T09:57:55.824Z,-135.6
2023-02-14T09:58:59.118Z,-74.16
2023-02-14T10:00:02.473Z,10.33
2023-02-14T10:01:05.714Z,38.49
2023-02-14T10:02:08.994Z,87.13
2023-02-14T10:03:12.289Z,115.29
2023-02-14T10:04:15.477Z,202.33
2023-02-14T10:05:17.874Z,184.41
2023-02-14T10:06:21.161Z,2.56
2023-02-14T10:07:24.460Z,-234.06
2023-02-14T10:08:26.774Z,-209.83
2023-02-14T10:09:29.085Z,2.56
2023-02-14T10:10:31.386Z,-7.59
2023-02-14T10:11:33.701Z,102.5
2023-02-14T10:12:36.993Z,176.74
2023-02-14T10:13:40.289Z,53.86
2023-02-14T10:14:43.591Z,-43.43
2023-02-14T10:15:46.881Z,-33.19
2023-02-14T10:16:50.167Z,48.74
2023-02-14T10:17:53.451Z,48.74
2023-02-14T10:18:56.739Z,69.22
2023-02-14T10:20:00.046Z,112.74
2023-02-14T10:21:03.359Z,176.74
2023-02-14T10:22:06.624Z,291.94
2023-02-14T10:23:09.920Z,284.26
2023-02-14T10:24:13.205Z,-325.02
2023-02-14T10:25:15.523Z,284.26
2023-02-14T10:26:18.802Z,279.14
2023-02-14T10:31:35.263Z,-153.5
2023-02-14T10:32:37.586Z,-176.54
2023-02-14T10:33:39.890Z,-163.74
2023-02-14T10:34:42.228Z,-255.9
2023-02-14T10:35:44.506Z,-176.54
2023-02-14T10:39:57.713Z,92.27
2023-02-14T10:44:10.844Z,-199.58
2023-02-14T10:45:14.143Z,-99.74
2023-02-14T10:46:17.437Z,18.03
2023-02-14T10:47:20.720Z,299.63
2023-02-14T10:48:24.015Z,-204.69
2023-02-14T10:49:26.325Z,-212.37
2023-02-14T10:50:29.674Z,-314.77
2023-02-14T10:51:32.895Z,-327.57
2023-02-14T10:52:36.200Z,-314.77
2023-02-14T10:53:39.487Z,-163.73
2023-02-14T10:54:42.801Z,261.24
2023-02-14T10:55:46.085Z,-235.4
2023-02-14T10:56:48.396Z,-145.8
2023-02-14T10:57:50.684Z,-5.01
2023-02-14T10:58:53.986Z,-168.85
2023-02-14T10:59:57.277Z,-99.73
2023-02-14T11:01:00.563Z,-148.37
2023-02-14T11:02:03.876Z,-184.21
2023-02-14T11:03:07.141Z,-184.21
2023-02-14T11:04:10.478Z,-176.53
2023-02-14T11:05:13.763Z,-266.13
2023-02-14T11:06:17.049Z,-220.05
2023-02-14T11:07:20.327Z,-232.85
2023-02-14T11:08:23.764Z,-240.53
2023-02-14T11:09:26.894Z,-245.65
2023-02-14T11:10:30.195Z,-307.09
2023-02-14T11:11:32.696Z,-273.81
2023-02-14T11:12:35.801Z,-286.61
2023-02-14T11:13:39.449Z,-273.81
2023-02-14T11:14:42.793Z,-273.81
2023-02-14T11:15:45.967Z,-301.97
2023-02-14T11:16:49.279Z,294.51
2023-02-14T11:17:52.512Z,274.03
2023-02-14T11:18:54.930Z,-314.77
2023-02-14T11:19:57.209Z,-301.97
2023-02-14T11:21:00.554Z,-327.57
2023-02-14T11:22:02.860Z,266.35
2023-02-14T11:23:05.158Z,274.03
2023-02-14T11:24:07.548Z,-281.49
2023-02-14T11:25:10.759Z,-327.57
2023-02-14T11:26:14.156Z,-301.97
2023-02-14T11:27:17.503Z,-225.17
2023-02-14T11:28:20.684Z,-286.61
2023-02-14T11:29:24.003Z,-314.77
2023-02-14T11:30:27.205Z,-314.77
2023-02-14T11:31:30.494Z,-240.53
2023-02-14T11:32:33.911Z,-191.89
2023-02-14T11:33:37.103Z,-176.53
2023-02-14T11:34:40.499Z,-220.05
2023-02-14T11:35:43.719Z,-84.37
2023-02-14T11:36:46.999Z,-148.37
2023-02-14T11:37:49.364Z,-84.37
2023-02-14T11:38:52.592Z,-63.89
2023-02-14T11:39:55.849Z,-33.17
2023-02-14T11:40:59.202Z,2.68
2023-02-14T11:42:02.452Z,-176.53
2023-02-14T11:43:05.726Z,-245.65
2023-02-14T11:44:09.017Z,299.63
2023-02-14T11:45:11.334Z,240.75
2023-02-14T11:46:13.751Z,181.87
2023-02-14T11:47:15.946Z,110.19
2023-02-14T11:48:18.280Z,92.27
2023-02-14T11:49:21.563Z,-7.58
2023-02-14T11:50:24.843Z,-33.18
2023-02-14T11:51:28.153Z,-92.06
2023-02-14T11:52:31.497Z,-127.9
2023-02-14T11:53:34.777Z,-153.5
2023-02-14T11:54:38.023Z,-186.78
2023-02-14T11:55:41.384Z,-199.58
2023-02-14T11:56:44.631Z,-222.62
2023-02-14T11:57:48.029Z,-255.9
2023-02-14T11:58:51.177Z,-232.86
2023-02-14T11:59:54.656Z,-250.78
2023-02-14T12:00:57.765Z,-307.1
2023-02-14T12:02:00.557Z,297.06
2023-02-14T12:03:03.435Z,258.66
2023-02-14T12:04:06.698Z,263.78
2023-02-14T12:05:09.940Z,215.14
2023-02-14T12:06:13.321Z,176.74
2023-02-14T12:07:16.526Z,171.62
2023-02-14T12:08:19.819Z,92.26
2023-02-14T12:09:22.140Z,92.26
2023-02-14T12:10:24.674Z,92.26
2023-02-14T12:11:27.914Z,107.62
2023-02-14T12:12:30.083Z,122.98
2023-02-14T12:13:32.470Z,102.5
2023-02-14T12:14:35.654Z,53.86
2023-02-14T12:15:39.599Z,112.74
2023-02-14T12:16:42.860Z,112.74
2023-02-14T12:17:46.154Z,112.74
2023-02-14T12:18:49.453Z,69.22
2023-02-14T12:19:52.783Z,48.74
2023-02-14T12:20:56.115Z,2.56
2023-02-14T12:21:59.461Z,-51.11
2023-02-14T12:23:02.610Z,53.86
2023-02-14T12:24:05.921Z,23.14
2023-02-14T12:25:09.252Z,-33.19
2023-02-14T12:26:12.509Z,-122.79
2023-02-14T12:27:14.879Z,-66.47
2023-02-14T12:28:18.103Z,-107.43
2023-02-14T12:29:21.449Z,-102.31
2023-02-14T12:30:24.734Z,-161.19
2023-02-14T12:31:28.105Z,-140.71
2023-02-14T12:32:31.304Z,-135.59
2023-02-14T12:33:34.588Z,-150.95
2023-02-14T12:34:37.858Z,-130.47
2023-02-14T12:35:41.331Z,-189.35
2023-02-14T12:36:44.485Z,-237.99
2023-02-14T12:37:47.730Z,-250.79
2023-02-14T12:38:50.039Z,-237.99
2023-02-14T12:39:52.332Z,-212.39
2023-02-14T12:40:54.644Z,-199.59
2023-02-14T12:41:56.953Z,-255.91
2023-02-14T12:43:00.282Z,-266.15
2023-02-14T12:44:03.628Z,-278.95
2023-02-14T12:45:06.858Z,-266.15
2023-02-14T12:46:10.115Z,307.29
2023-02-14T12:47:13.466Z,268.89
2023-02-14T12:48:16.702Z,266.33
2023-02-14T12:49:20.002Z,274.01
2023-02-14T12:50:23.341Z,297.05
2023-02-14T12:51:26.586Z,314.97
2023-02-14T12:52:29.892Z,320.09
2023-02-14T12:53:33.172Z,289.37
2023-02-14T12:54:36.450Z,325.21
2023-02-14T12:55:38.796Z,279.13
2023-02-14T12:56:42.738Z,302.17
2023-02-14T12:57:46.024Z,-325.03
2023-02-14T12:58:49.320Z,-307.11
2023-02-14T12:59:52.605Z,-317.35
2023-02-14T13:00:55.896Z,320.09
2023-02-14T13:01:59.171Z,307.29
2023-02-14T13:03:01.492Z,-325.03
2023-02-14T13:04:03.797Z,291.93
2023-02-14T13:05:06.142Z,238.17
2023-02-14T13:06:08.453Z,268.89
2023-02-14T13:07:11.712Z,202.33
2023-02-14T13:08:15.017Z,248.41
2023-02-14T13:09:18.309Z,225.37
2023-02-14T13:10:21.593Z,199.77
2023-02-14T13:11:24.883Z,207.45
2023-02-14T13:12:28.178Z,171.61
2023-02-14T13:13:31.557Z,133.21
2023-02-14T13:14:34.746Z,120.41
2023-02-14T13:15:38.047Z,128.09